createdAt,value
2018-08-12T00:02:04.726Z,99.90
2018-08-12T00:04:33.918Z,99.90
2018-08-12T00:07:02.462Z,99.90
2018-08-12T00:09:31.020Z,99.90
2018-08-12T00:11:59.538Z,99.90
2018-08-12T00:14:28.034Z,99.90
2018-08-12T00:16:56.490Z,99.90
2018-08-12T00:19:25.014Z,99.90
2018-08-12T00:21:53.489Z,99.90
2018-08-12T00:24:21.985Z,99.90
2018-08-12T00:26:50.699Z,99.90
2018-08-12T00:29:19.182Z,99.90
2018-08-12T00:31:47.626Z,99.90
2018-08-12T00:34:16.385Z,99.90
2018-08-12T00:36:44.925Z,99.90
2018-08-12T00:39:13.878Z,99.90
2018-08-12T00:41:42.318Z,99.90
2018-08-12T00:44:10.933Z,99.90
2018-08-12T00:46:39.625Z,99.90
2018-08-12T00:49:08.145Z,99.90
2018-08-12T00:51:36.662Z,99.90
2018-08-12T00:54:05.371Z,99.90
2018-08-12T00:56:33.883Z,99.90
2018-08-12T00:59:02.394Z,99.90
2018-08-12T01:01:30.865Z,99.90
2018-08-12T01:03:59.372Z,99.90
2018-08-12T01:06:27.889Z,99.90
2018-08-12T01:08:56.434Z,99.90
2018-08-12T01:11:25.000Z,99.90
2018-08-12T01:13:53.602Z,99.90
2018-08-12T01:16:22.085Z,99.90
2018-08-12T01:18:50.570Z,99.90
2018-08-12T01:21:19.026Z,99.90
2018-08-12T01:23:47.569Z,99.90
2018-08-12T01:26:16.050Z,99.90
2018-08-12T01:28:44.598Z,99.90
2018-08-12T01:31:13.113Z,99.90
2018-08-12T01:33:41.591Z,99.90
2018-08-12T01:36:10.086Z,99.90
2018-08-12T01:38:38.573Z,99.90
2018-08-12T01:41:07.562Z,99.90
2018-08-12T01:43:36.198Z,99.90
2018-08-12T01:46:04.711Z,99.90
2018-08-12T01:48:33.165Z,99.90
2018-08-12T01:51:01.679Z,99.90
2018-08-12T01:53:30.159Z,99.90
2018-08-12T01:55:58.626Z,99.90
2018-08-12T01:58:27.318Z,99.90
2018-08-12T02:00:55.784Z,99.90
2018-08-12T02:03:24.274Z,99.90
2018-08-12T02:05:52.803Z,99.90
2018-08-12T02:08:21.282Z,99.90
2018-08-12T02:10:49.766Z,99.90
2018-08-12T02:13:18.233Z,99.90
2018-08-12T02:15:46.723Z,99.90
2018-08-12T02:18:15.186Z,99.90
2018-08-12T02:20:43.689Z,99.90
2018-08-12T02:23:12.201Z,99.90
2018-08-12T02:25:40.691Z,99.90
2018-08-12T02:28:09.187Z,99.90
2018-08-12T02:30:38.109Z,99.90
2018-08-12T02:33:06.649Z,99.90
2018-08-12T02:35:35.166Z,99.90
2018-08-12T02:38:03.684Z,99.90
2018-08-12T02:40:32.199Z,99.90
2018-08-12T02:43:00.678Z,99.90
2018-08-12T02:45:29.187Z,99.90
2018-08-12T02:47:57.653Z,99.90
2018-08-12T02:50:26.161Z,99.90
2018-08-12T02:52:54.665Z,99.90
2018-08-12T02:55:23.161Z,99.90
2018-08-12T02:57:51.634Z,99.90
2018-08-12T03:00:20.108Z,99.90
2018-08-12T03:02:48.843Z,99.90
2018-08-12T03:05:17.351Z,99.90
2018-08-12T03:07:45.823Z,99.90
2018-08-12T03:10:14.294Z,99.90
2018-08-12T03:12:42.810Z,99.90
2018-08-12T03:15:11.627Z,99.90
2018-08-12T03:17:40.223Z,99.90
2018-08-12T03:20:10.643Z,99.90
2018-08-12T03:22:39.219Z,99.90
2018-08-12T03:25:08.752Z,99.90
2018-08-12T03:27:37.298Z,99.90
2018-08-12T03:30:06.721Z,99.90
2018-08-12T03:32:35.162Z,99.90
2018-08-12T03:35:03.759Z,99.90
2018-08-12T03:37:32.261Z,99.90
2018-08-12T03:40:00.773Z,99.90
2018-08-12T03:42:29.225Z,99.90
2018-08-12T03:44:57.704Z,99.90
2018-08-12T03:47:26.551Z,99.90
2018-08-12T03:49:55.033Z,99.90
2018-08-12T03:52:23.557Z,99.90
2018-08-12T03:54:52.025Z,99.90
2018-08-12T03:57:20.585Z,99.90
2018-08-12T03:59:49.062Z,99.90
2018-08-12T04:02:17.617Z,99.90
2018-08-12T04:04:46.093Z,99.90
2018-08-12T04:07:14.530Z,99.90
2018-08-12T04:09:43.059Z,99.90
2018-08-12T04:12:11.749Z,99.90
2018-08-12T04:14:40.534Z,99.90
2018-08-12T04:17:09.091Z,99.90
2018-08-12T04:19:37.533Z,99.90
2018-08-12T04:22:06.010Z,99.90
2018-08-12T04:24:34.449Z,99.90
2018-08-12T04:27:03.165Z,99.90
2018-08-12T04:29:31.597Z,99.90
2018-08-12T04:32:00.090Z,99.90
2018-08-12T04:34:28.753Z,99.90
2018-08-12T04:36:57.472Z,99.90
2018-08-12T04:39:25.933Z,99.90
2018-08-12T04:41:54.394Z,99.90
2018-08-12T04:44:22.858Z,99.90
2018-08-12T04:46:51.315Z,99.90
2018-08-12T04:49:20.256Z,99.90
2018-08-12T04:51:48.714Z,99.90
2018-08-12T04:54:17.212Z,99.90
2018-08-12T04:56:45.694Z,99.90
2018-08-12T04:59:14.191Z,99.90
2018-08-12T05:01:42.632Z,99.90
2018-08-12T05:04:11.077Z,99.90
2018-08-12T05:06:39.773Z,99.60
2018-08-12T05:09:09.785Z,99.20
2018-08-12T05:11:38.383Z,99.00
2018-08-12T05:14:06.932Z,98.80
2018-08-12T05:16:35.409Z,98.90
2018-08-12T05:19:03.918Z,98.80
2018-08-12T05:21:32.385Z,98.50
2018-08-12T05:24:00.866Z,98.00
2018-08-12T05:26:29.326Z,98.00
2018-08-12T05:28:58.238Z,98.10
2018-08-12T05:31:26.730Z,97.50
2018-08-12T05:33:55.542Z,97.40
2018-08-12T05:36:24.450Z,97.30
2018-08-12T05:38:53.022Z,97.10
2018-08-12T05:41:21.510Z,96.90
2018-08-12T05:43:49.989Z,96.50
2018-08-12T05:46:18.461Z,96.90
2018-08-12T05:48:46.922Z,96.30
2018-08-12T05:51:15.890Z,96.50
2018-08-12T05:53:44.335Z,96.30
2018-08-12T05:56:12.805Z,96.00
2018-08-12T05:58:41.346Z,95.90
2018-08-12T06:01:09.822Z,95.40
2018-08-12T06:03:38.283Z,95.20
2018-08-12T06:06:06.926Z,95.20
2018-08-12T06:08:37.309Z,94.70
2018-08-12T06:11:05.882Z,95.10
2018-08-12T06:13:34.366Z,94.40
2018-08-12T06:16:02.942Z,94.90
2018-08-12T06:18:31.485Z,94.70
2018-08-12T06:21:00.213Z,94.50
2018-08-12T06:23:28.689Z,94.20
2018-08-12T06:25:57.174Z,94.40
2018-08-12T06:28:25.689Z,94.40
2018-08-12T06:30:54.445Z,94.30
2018-08-12T06:33:22.906Z,94.20
2018-08-12T06:35:51.331Z,94.30
2018-08-12T06:38:19.846Z,93.60
2018-08-12T06:40:48.455Z,94.30
2018-08-12T06:43:16.973Z,94.40
2018-08-12T06:45:45.466Z,94.60
2018-08-12T06:48:14.150Z,95.20
2018-08-12T06:50:42.623Z,94.60
2018-08-12T06:53:11.849Z,95.40
2018-08-12T06:55:40.670Z,95.60
2018-08-12T06:58:09.139Z,94.80
2018-08-12T07:00:37.670Z,95.80
2018-08-12T07:03:06.261Z,95.40
2018-08-12T07:05:34.754Z,96.30
2018-08-12T07:08:03.384Z,96.50
2018-08-12T07:10:31.890Z,97.10
2018-08-12T07:13:00.392Z,96.50
2018-08-12T07:15:29.049Z,96.50
2018-08-12T07:17:57.569Z,96.10
2018-08-12T07:20:26.030Z,95.70
2018-08-12T07:22:55.935Z,96.10
2018-08-12T07:25:25.219Z,96.50
2018-08-12T07:27:53.883Z,96.20
2018-08-12T07:30:22.817Z,96.20
2018-08-12T07:32:51.358Z,96.50
2018-08-12T07:35:20.374Z,96.60
2018-08-12T07:37:48.871Z,96.80
2018-08-12T07:40:19.514Z,96.50
2018-08-12T07:42:49.357Z,96.50
2018-08-12T07:45:17.943Z,95.90
2018-08-12T07:47:46.493Z,96.10
2018-08-12T07:50:14.998Z,95.70
2018-08-12T07:52:44.597Z,95.00
2018-08-12T07:55:13.849Z,95.40
2018-08-12T07:57:43.358Z,95.30
2018-08-12T08:00:15.117Z,94.90
2018-08-12T08:02:43.670Z,95.30
2018-08-12T08:05:12.194Z,95.50
2018-08-12T08:07:40.838Z,95.40
2018-08-12T08:10:13.493Z,96.40
2018-08-12T08:12:42.168Z,95.90
2018-08-12T08:15:15.676Z,96.00
2018-08-12T08:17:44.584Z,96.10
2018-08-12T08:20:14.034Z,96.10
2018-08-12T08:22:42.747Z,96.10
2018-08-12T08:25:11.706Z,95.80
2018-08-12T08:27:40.356Z,95.90
2018-08-12T08:30:11.795Z,96.20
2018-08-12T08:32:40.311Z,95.80
2018-08-12T08:35:09.179Z,96.40
2018-08-12T08:37:38.030Z,95.90
2018-08-12T08:40:08.918Z,95.90
2018-08-12T08:42:37.480Z,96.10
2018-08-12T08:45:12.121Z,95.80
2018-08-12T08:47:40.608Z,96.20
2018-08-12T08:50:09.363Z,96.50
2018-08-12T08:52:38.573Z,96.70
2018-08-12T08:55:08.894Z,96.70
2018-08-12T08:57:38.002Z,96.00
2018-08-12T09:00:10.334Z,96.00
2018-08-12T09:02:38.980Z,96.20
2018-08-12T09:05:09.457Z,96.30
2018-08-12T09:07:38.153Z,96.60
2018-08-12T09:10:08.361Z,96.80
2018-08-12T09:12:37.352Z,96.80
2018-08-12T09:15:06.684Z,95.80
2018-08-12T09:17:35.768Z,96.30
2018-08-12T09:20:05.410Z,96.10
2018-08-12T09:22:33.849Z,96.80
2018-08-12T09:25:02.338Z,96.10
2018-08-12T09:27:30.905Z,96.10
2018-08-12T09:29:59.483Z,96.20
2018-08-12T09:32:27.965Z,96.40
2018-08-12T09:34:56.449Z,96.10
2018-08-12T09:37:24.937Z,96.40
2018-08-12T09:39:53.407Z,95.40
2018-08-12T09:42:21.898Z,95.50
2018-08-12T09:44:50.597Z,96.00
2018-08-12T09:47:19.058Z,95.30
2018-08-12T09:49:47.517Z,95.80
2018-08-12T09:52:15.999Z,96.20
2018-08-12T09:54:44.474Z,96.00
2018-08-12T09:57:12.990Z,95.40
2018-08-12T09:59:41.486Z,95.10
2018-08-12T10:02:09.993Z,95.30
2018-08-12T10:04:38.465Z,94.70
2018-08-12T10:07:06.939Z,94.50
2018-08-12T10:09:35.446Z,95.10
2018-08-12T10:12:03.982Z,94.70
2018-08-12T10:14:32.465Z,94.40
2018-08-12T10:17:06.329Z,94.20
2018-08-12T10:19:35.587Z,94.80
2018-08-12T10:22:04.624Z,92.80
2018-08-12T10:24:33.221Z,94.00
2018-08-12T10:27:01.806Z,92.70
2018-08-12T10:29:30.949Z,92.90
2018-08-12T10:31:59.742Z,93.60
2018-08-12T10:34:30.132Z,93.70
2018-08-12T10:36:58.834Z,93.30
2018-08-12T10:39:27.542Z,93.40
2018-08-12T10:41:56.481Z,93.00
2018-08-12T10:44:25.376Z,92.50
2018-08-12T10:46:54.107Z,93.00
2018-08-12T10:49:27.270Z,93.20
2018-08-12T10:51:56.023Z,92.90
2018-08-12T10:54:24.882Z,93.20
2018-08-12T10:56:53.452Z,92.60
2018-08-12T10:59:22.271Z,92.80
2018-08-12T11:01:50.788Z,91.70
2018-08-12T11:04:19.350Z,92.50
2018-08-12T11:06:49.521Z,92.90
2018-08-12T11:09:18.637Z,92.60
2018-08-12T11:11:47.397Z,92.10
2018-08-12T11:14:15.904Z,92.00
2018-08-12T11:16:44.864Z,91.70
2018-08-12T11:19:13.433Z,91.70
2018-08-12T11:21:42.146Z,91.60
2018-08-12T11:24:10.867Z,90.40
2018-08-12T11:26:39.344Z,90.40
2018-08-12T11:29:08.730Z,90.00
2018-08-12T11:31:37.517Z,90.90
2018-08-12T11:34:06.369Z,90.30
2018-08-12T11:36:34.857Z,90.60
2018-08-12T11:39:03.418Z,89.90
2018-08-12T11:41:31.965Z,89.50
2018-08-12T11:44:00.491Z,88.80
2018-08-12T11:46:29.427Z,87.10
2018-08-12T11:48:57.934Z,87.30
2018-08-12T11:51:26.418Z,86.70
2018-08-12T11:53:54.942Z,87.80
2018-08-12T11:56:23.479Z,88.10
2018-08-12T11:58:52.010Z,87.60
2018-08-12T12:01:20.494Z,86.70
2018-08-12T12:03:49.063Z,87.30
2018-08-12T12:06:17.780Z,87.90
2018-08-12T12:08:46.298Z,88.40
2018-08-12T12:11:14.749Z,87.40
2018-08-12T12:13:43.498Z,87.60
2018-08-12T12:16:11.965Z,87.90
2018-08-12T12:18:40.430Z,86.00
2018-08-12T12:21:08.919Z,84.00
2018-08-12T12:23:37.396Z,83.60
2018-08-12T12:26:06.048Z,83.00
2018-08-12T12:28:34.492Z,82.40
2018-08-12T12:31:03.047Z,83.50
2018-08-12T12:33:31.567Z,80.90
2018-08-12T12:36:00.114Z,79.90
2018-08-12T12:38:28.684Z,80.70
2018-08-12T12:40:57.450Z,78.90
2018-08-12T12:43:26.599Z,79.80
2018-08-12T12:45:56.970Z,80.00
2018-08-12T12:48:25.710Z,80.40
2018-08-12T12:50:55.894Z,79.40
2018-08-12T12:53:24.368Z,79.90
2018-08-12T12:55:52.813Z,79.70
2018-08-12T12:58:21.350Z,78.70
2018-08-12T13:00:49.801Z,80.80
2018-08-12T13:03:18.235Z,80.90
2018-08-12T13:05:46.715Z,80.30
2018-08-12T13:08:15.194Z,79.40
2018-08-12T13:10:43.694Z,79.90
2018-08-12T13:13:12.194Z,78.90
2018-08-12T13:15:40.671Z,80.10
2018-08-12T13:18:09.236Z,80.50
2018-08-12T13:20:37.694Z,80.10
2018-08-12T13:23:06.410Z,81.80
2018-08-12T13:25:34.969Z,80.50
2018-08-12T13:28:03.431Z,78.60
2018-08-12T13:30:31.869Z,78.00
2018-08-12T13:33:00.402Z,74.60
2018-08-12T13:35:28.902Z,77.60
2018-08-12T13:37:57.634Z,76.20
2018-08-12T13:40:26.101Z,75.20
2018-08-12T13:42:54.579Z,77.90
2018-08-12T13:45:23.047Z,76.90
2018-08-12T13:47:51.761Z,74.10
2018-08-12T13:50:22.097Z,75.70
2018-08-12T13:52:51.173Z,75.40
2018-08-12T13:55:20.490Z,76.40
2018-08-12T13:57:49.779Z,76.50
2018-08-12T14:00:21.770Z,76.70
2018-08-12T14:02:50.674Z,77.50
2018-08-12T14:05:19.625Z,77.50
2018-08-12T14:07:48.821Z,75.80
2018-08-12T14:10:17.358Z,76.30
2018-08-12T14:12:45.871Z,78.10
2018-08-12T14:15:16.322Z,77.80
2018-08-12T14:17:45.847Z,77.30
2018-08-12T14:20:16.145Z,78.70
2018-08-12T14:22:45.094Z,77.50
2018-08-12T14:25:13.674Z,77.20
2018-08-12T14:27:43.139Z,76.60
2018-08-12T14:30:14.295Z,76.30
2018-08-12T14:32:43.478Z,76.80
2018-08-12T14:35:12.026Z,76.60
2018-08-12T14:37:40.739Z,76.30
2018-08-12T14:40:10.962Z,76.30
2018-08-12T14:42:39.494Z,76.80
2018-08-12T14:45:09.677Z,77.10
2018-08-12T14:47:38.583Z,75.90
2018-08-12T14:50:09.157Z,77.10
2018-08-12T14:52:37.848Z,77.60
2018-08-12T14:55:07.412Z,77.80
2018-08-12T14:57:35.974Z,78.30
2018-08-12T15:00:05.179Z,75.60
2018-08-12T15:02:33.668Z,76.50
2018-08-12T15:05:02.130Z,77.60
2018-08-12T15:07:30.641Z,77.10
2018-08-12T15:09:59.085Z,75.80
2018-08-12T15:12:27.586Z,76.40
2018-08-12T15:14:56.125Z,75.90
2018-08-12T15:17:24.721Z,76.90
2018-08-12T15:19:53.319Z,77.10
2018-08-12T15:22:21.829Z,76.60
2018-08-12T15:24:50.287Z,77.50
2018-08-12T15:27:18.771Z,77.00
2018-08-12T15:29:47.247Z,77.30
2018-08-12T15:32:15.722Z,77.80
2018-08-12T15:34:44.218Z,76.90
2018-08-12T15:37:12.937Z,77.70
2018-08-12T15:39:41.397Z,77.60
2018-08-12T15:42:09.938Z,78.40
2018-08-12T15:44:38.381Z,77.20
2018-08-12T15:47:06.890Z,78.70
2018-08-12T15:49:35.378Z,79.40
2018-08-12T15:52:03.901Z,77.70
2018-08-12T15:54:32.386Z,79.30
2018-08-12T15:57:01.318Z,78.50
2018-08-12T15:59:29.805Z,79.00
2018-08-12T16:01:58.298Z,78.20
2018-08-12T16:04:27.513Z,79.30
2018-08-12T16:06:56.018Z,79.00
2018-08-12T16:09:24.462Z,78.10
2018-08-12T16:11:52.933Z,78.30
2018-08-12T16:14:21.409Z,79.10
2018-08-12T16:16:49.873Z,79.30
2018-08-12T16:19:18.309Z,79.40
2018-08-12T16:21:46.775Z,79.40
2018-08-12T16:24:15.291Z,80.50
2018-08-12T16:26:43.669Z,80.90
2018-08-12T16:29:12.130Z,80.40
2018-08-12T16:31:40.594Z,80.70
2018-08-12T16:34:09.049Z,79.60
2018-08-12T16:36:37.519Z,80.40
2018-08-12T16:39:08.954Z,82.60
2018-08-12T16:41:37.754Z,79.90
2018-08-12T16:44:06.238Z,81.20
2018-08-12T16:46:35.045Z,82.60
2018-08-12T16:49:03.723Z,80.90
2018-08-12T16:51:32.228Z,82.10
2018-08-12T16:54:00.808Z,80.30
2018-08-12T16:56:29.297Z,79.90
2018-08-12T16:58:57.792Z,76.40
2018-08-12T17:01:26.254Z,76.10
2018-08-12T17:03:54.739Z,75.20
2018-08-12T17:06:23.342Z,74.40
2018-08-12T17:08:51.792Z,74.00
2018-08-12T17:11:20.226Z,74.20
2018-08-12T17:13:48.989Z,74.70
2018-08-12T17:16:17.517Z,74.40
2018-08-12T17:18:47.059Z,74.70
2018-08-12T17:21:15.525Z,74.40
2018-08-12T17:23:43.986Z,75.00
2018-08-12T17:26:12.426Z,74.90
2018-08-12T17:28:40.877Z,74.90
2018-08-12T17:31:09.316Z,76.20
2018-08-12T17:33:37.807Z,78.50
2018-08-12T17:36:06.305Z,80.80
2018-08-12T17:38:34.776Z,81.20
2018-08-12T17:41:03.338Z,82.00
2018-08-12T17:43:31.824Z,82.50
2018-08-12T17:46:00.762Z,83.30
2018-08-12T17:48:29.615Z,84.00
2018-08-12T17:50:58.292Z,84.60
2018-08-12T17:53:27.022Z,86.20
2018-08-12T17:55:55.462Z,85.60
2018-08-12T17:58:24.475Z,86.20
2018-08-12T18:00:53.810Z,86.20
2018-08-12T18:03:22.312Z,86.40
2018-08-12T18:05:50.874Z,86.80
2018-08-12T18:08:19.417Z,87.10
2018-08-12T18:10:47.886Z,87.50
2018-08-12T18:13:16.421Z,87.90
2018-08-12T18:15:45.462Z,88.30
2018-08-12T18:18:13.982Z,88.40
2018-08-12T18:20:42.910Z,88.30
2018-08-12T18:23:11.366Z,88.80
2018-08-12T18:25:39.886Z,88.80
2018-08-12T18:28:08.834Z,88.90
2018-08-12T18:30:37.308Z,89.20
2018-08-12T18:33:06.979Z,89.30
2018-08-12T18:35:35.534Z,89.60
2018-08-12T18:38:04.163Z,89.90
2018-08-12T18:40:33.074Z,89.90
2018-08-12T18:43:02.028Z,89.90
2018-08-12T18:45:30.545Z,90.10
2018-08-12T18:47:59.398Z,90.20
2018-08-12T18:50:28.192Z,90.60
2018-08-12T18:52:56.722Z,90.30
2018-08-12T18:55:25.228Z,90.40
2018-08-12T18:57:53.742Z,90.60
2018-08-12T19:00:22.648Z,90.50
2018-08-12T19:02:51.182Z,90.60
2018-08-12T19:05:19.762Z,90.60
2018-08-12T19:07:48.306Z,91.00
2018-08-12T19:10:17.234Z,91.00
2018-08-12T19:12:46.237Z,91.40
2018-08-12T19:15:14.777Z,91.90
2018-08-12T19:17:43.314Z,92.00
2018-08-12T19:20:12.122Z,92.50
2018-08-12T19:22:40.701Z,92.10
2018-08-12T19:25:10.231Z,91.90
2018-08-12T19:27:39.127Z,92.10
2018-08-12T19:30:10.651Z,91.90
2018-08-12T19:32:40.445Z,92.10
2018-08-12T19:35:10.673Z,92.00
2018-08-12T19:37:39.177Z,91.90
2018-08-12T19:40:08.283Z,91.90
2018-08-12T19:42:36.809Z,92.70
2018-08-12T19:45:06.161Z,93.10
2018-08-12T19:47:34.772Z,92.80
2018-08-12T19:50:03.815Z,92.80
2018-08-12T19:52:32.355Z,93.00
2018-08-12T19:55:00.846Z,92.50
2018-08-12T19:57:29.363Z,92.80
2018-08-12T19:59:57.862Z,92.40
2018-08-12T20:02:26.453Z,93.10
2018-08-12T20:04:54.940Z,93.60
2018-08-12T20:07:23.434Z,93.50
2018-08-12T20:09:52.198Z,94.50
2018-08-12T20:12:20.815Z,94.50
2018-08-12T20:14:49.342Z,94.90
2018-08-12T20:17:17.845Z,95.50
2018-08-12T20:19:46.547Z,95.70
2018-08-12T20:22:16.248Z,95.80
2018-08-12T20:24:45.353Z,95.70
2018-08-12T20:27:14.263Z,96.30
2018-08-12T20:29:43.351Z,96.60
2018-08-12T20:32:12.022Z,96.50
2018-08-12T20:34:40.842Z,96.40
2018-08-12T20:37:09.515Z,96.50
2018-08-12T20:39:38.029Z,96.90
2018-08-12T20:42:06.578Z,97.20
2018-08-12T20:44:35.184Z,96.90
2018-08-12T20:47:03.862Z,96.90
2018-08-12T20:49:32.851Z,97.00
2018-08-12T20:52:01.458Z,97.00
2018-08-12T20:54:30.239Z,96.90
2018-08-12T20:56:58.930Z,97.60
2018-08-12T20:59:27.555Z,97.40
2018-08-12T21:01:56.042Z,97.10
2018-08-12T21:04:24.630Z,97.00
2018-08-12T21:06:53.211Z,97.30
2018-08-12T21:09:30.988Z,97.20
2018-08-12T21:12:00.018Z,97.10
2018-08-12T21:14:28.629Z,97.00
2018-08-12T21:16:57.819Z,96.50
2018-08-12T21:19:26.859Z,97.10
2018-08-12T21:21:55.506Z,96.90
2018-08-12T21:24:24.334Z,96.80
2018-08-12T21:26:52.998Z,97.00
2018-08-12T21:29:21.641Z,96.80
2018-08-12T21:31:50.235Z,97.20
2018-08-12T21:34:18.971Z,97.10
2018-08-12T21:36:47.472Z,96.90
2018-08-12T21:39:16.000Z,96.90
2018-08-12T21:41:44.628Z,96.90
2018-08-12T21:44:13.211Z,97.10
2018-08-12T21:46:42.052Z,96.70
2018-08-12T21:49:12.904Z,97.20
2018-08-12T21:51:41.727Z,97.00
2018-08-12T21:54:10.207Z,97.00
2018-08-12T21:56:38.733Z,96.70
2018-08-12T21:59:07.203Z,96.70
2018-08-12T22:01:35.670Z,96.70
2018-08-12T22:04:04.286Z,96.60
2018-08-12T22:06:32.886Z,96.80
2018-08-12T22:09:01.442Z,97.00
2018-08-12T22:11:30.045Z,96.80
2018-08-12T22:13:58.684Z,96.50
2018-08-12T22:16:27.414Z,96.90
2018-08-12T22:18:56.233Z,97.00
2018-08-12T22:21:24.770Z,97.10
2018-08-12T22:23:53.246Z,96.90
2018-08-12T22:26:21.745Z,97.10
2018-08-12T22:28:50.244Z,96.80
2018-08-12T22:31:18.946Z,97.00
2018-08-12T22:33:47.518Z,97.30
2018-08-12T22:36:16.825Z,97.30
2018-08-12T22:38:45.330Z,97.30
2018-08-12T22:41:14.175Z,97.00
2018-08-12T22:43:42.662Z,97.20
2018-08-12T22:46:11.182Z,97.20
2018-08-12T22:48:39.738Z,97.20
2018-08-12T22:51:08.230Z,97.00
2018-08-12T22:53:36.697Z,97.10
2018-08-12T22:56:05.213Z,97.20
2018-08-12T22:58:33.714Z,97.30
2018-08-12T23:01:02.211Z,97.10
2018-08-12T23:03:30.732Z,97.50
2018-08-12T23:05:59.274Z,97.50
2018-08-12T23:08:33.496Z,97.00
2018-08-12T23:11:02.059Z,97.30
2018-08-12T23:13:30.814Z,97.30
2018-08-12T23:16:12.710Z,97.10
2018-08-12T23:18:41.246Z,97.20
2018-08-12T23:21:11.613Z,97.30
2018-08-12T23:23:41.326Z,96.90
2018-08-12T23:26:10.853Z,96.90
2018-08-12T23:28:39.378Z,97.10
2018-08-12T23:31:08.553Z,96.90
2018-08-12T23:33:37.322Z,96.50
2018-08-12T23:36:07.593Z,96.50
2018-08-12T23:38:36.486Z,96.50
2018-08-12T23:41:05.286Z,96.60
2018-08-12T23:43:33.774Z,96.40
2018-08-12T23:46:02.291Z,95.90
2018-08-12T23:48:31.338Z,96.20
2018-08-12T23:51:00.487Z,96.60
2018-08-12T23:53:28.977Z,96.50
2018-08-12T23:55:57.481Z,96.50
2018-08-12T23:58:26.128Z,96.70
